Time;durP1;ratioP1;P1;durP2;ratioP2;P2;SDS_P1;SDS_P2;PMS_P1;PMS_P2;Temp;Humidity;BMP_temperature;BMP_pressure;BME280_temperature;BME280_humidity;BME280_pressure;Samples;Min_cycle;Max_cycle;Signal;HPM_P1;HPM_P2
2021/01/17 00:02:22;;;;;;;25.40;8.13;;;;;;;-4.36;60.01;96597.56;5026827;28;20021;-64
2021/01/17 00:04:49;;;;;;;22.38;7.65;;;;;;;-4.31;58.76;96589.38;5027116;28;20114;-64
2021/01/17 00:07:15;;;;;;;24.08;7.90;;;;;;;-4.31;59.32;96581.25;5026450;28;20033;-64
2021/01/17 00:09:40;;;;;;;19.33;6.88;;;;;;;-4.43;60.85;96591.66;5008808;28;20405;-64
2021/01/17 00:12:08;;;;;;;23.10;7.13;;;;;;;-4.36;60.98;96608.34;5026249;28;20033;-63
2021/01/17 00:14:35;;;;;;;21.58;7.22;;;;;;;-4.48;61.04;96595.22;5027134;28;20694;-62
2021/01/17 00:17:01;;;;;;;19.27;7.43;;;;;;;-5.15;61.95;96596.09;5026482;28;20029;-62
2021/01/17 00:19:26;;;;;;;23.67;7.65;;;;;;;-5.17;62.41;96560.50;5008682;28;20073;-63
2021/01/17 00:21:52;;;;;;;20.08;7.07;;;;;;;-5.63;64.19;96613.19;5026112;28;20065;-63
2021/01/17 00:24:17;;;;;;;22.48;9.90;;;;;;;-4.80;64.04;96611.19;5026467;28;20033;-63
2021/01/17 00:26:43;;;;;;;22.13;8.32;;;;;;;-4.86;63.98;96615.84;5025935;28;20118;-63
2021/01/17 00:29:08;;;;;;;19.75;7.25;;;;;;;-6.60;64.85;96358.06;5026791;28;20412;-64
2021/01/17 00:31:35;;;;;;;19.58;8.65;;;;;;;-5.02;64.65;96621.66;5025871;28;20025;-63
2021/01/17 00:34:01;;;;;;;29.00;10.10;;;;;;;-5.80;64.45;96534.53;5026265;28;20108;-64
2021/01/17 00:36:26;;;;;;;35.03;13.07;;;;;;;-5.10;66.31;96630.34;5024481;28;20052;-64
2021/01/17 00:38:52;;;;;;;25.23;9.55;;;;;;;-5.26;64.72;96629.66;5026201;28;20067;-62
2021/01/17 00:41:17;;;;;;;29.85;10.70;;;;;;;-6.23;64.74;96459.09;5041194;28;20041;-63
2021/01/17 00:43:43;;;;;;;28.52;9.23;;;;;;;-5.37;65.62;96587.63;5026642;28;20030;-65
2021/01/17 00:46:08;;;;;;;24.52;8.27;;;;;;;-6.36;65.30;96445.19;5026002;28;20041;-63
2021/01/17 00:48:34;;;;;;;32.90;11.60;;;;;;;-5.16;66.19;96632.28;5024783;28;20040;-63
2021/01/17 00:50:59;;;;;;;28.15;9.70;;;;;;;-5.23;65.18;96631.78;5025551;28;20041;-63
2021/01/17 00:53:24;;;;;;;17.73;7.45;;;;;;;-6.12;63.89;96503.75;5026285;28;20424;-63
2021/01/17 00:55:50;;;;;;;23.90;9.00;;;;;;;-5.30;65.54;96652.09;5040910;28;20046;-64
2021/01/17 00:58:15;;;;;;;22.00;9.02;;;;;;;-5.76;66.61;96577.91;5026026;28;20030;-65
2021/01/17 01:00:41;;;;;;;23.08;7.78;;;;;;;-6.51;66.29;96479.44;5025340;28;20827;-64
2021/01/17 01:03:09;;;;;;;20.10;7.90;;;;;;;-5.16;66.41;96659.28;5041142;28;20049;-64
2021/01/17 01:05:34;;;;;;;17.23;6.53;;;;;;;-5.14;63.33;96651.72;5025915;28;20046;-64
2021/01/17 01:07:59;;;;;;;20.30;7.32;;;;;;;-6.17;64.21;96491.13;5040823;28;20060;-63
2021/01/17 01:10:26;;;;;;;20.70;7.97;;;;;;;-5.80;64.97;96544.53;5025399;28;20543;-63
2021/01/17 01:12:54;;;;;;;16.85;7.88;;;;;;;-5.11;64.96;96653.84;5025625;28;20601;-63
2021/01/17 01:15:21;;;;;;;19.80;7.07;;;;;;;-5.08;64.49;96666.78;5025429;28;20048;-63
2021/01/17 01:17:47;;;;;;;17.75;7.03;;;;;;;-5.87;66.01;96528.69;5025948;28;20459;-63
2021/01/17 01:20:12;;;;;;;22.00;8.98;;;;;;;-5.54;65.35;96603.41;5025092;28;20033;-62
2021/01/17 01:22:42;;;;;;;25.42;10.43;;;;;;;-5.05;64.97;96654.63;5024178;28;20081;-63
2021/01/17 01:25:09;;;;;;;31.17;11.52;;;;;;;-5.20;65.08;96647.41;5025566;28;20034;-63
2021/01/17 01:27:35;;;;;;;26.95;10.73;;;;;;;-5.18;65.81;96655.22;5024069;28;20041;-62
2021/01/17 01:30:01;;;;;;;30.50;10.77;;;;;;;-5.23;66.44;96653.38;5025476;28;20037;-62
2021/01/17 01:32:26;;;;;;;20.20;8.98;;;;;;;-5.42;65.64;96659.72;5040168;28;20120;-62
2021/01/17 01:34:52;;;;;;;85.15;28.00;;;;;;;-5.96;66.47;96557.31;5024050;28;20025;-61
2021/01/17 01:37:17;;;;;;;19.38;8.65;;;;;;;-6.17;66.06;96550.41;5007075;28;20240;-62
2021/01/17 01:39:43;;;;;;;22.35;8.23;;;;;;;-6.39;67.66;96483.44;5025387;28;20504;-63
2021/01/17 01:42:08;;;;;;;24.02;9.57;;;;;;;-5.23;67.12;96658.78;5024445;28;20041;-62
2021/01/17 01:44:34;;;;;;;16.40;6.47;;;;;;;-5.43;66.49;96642.72;5024784;28;20463;-62
2021/01/17 01:47:00;;;;;;;25.05;9.07;;;;;;;-5.28;65.38;96650.72;5025179;28;20049;-63
2021/01/17 01:49:26;;;;;;;37.30;13.63;;;;;;;-5.60;66.65;96591.03;5025359;28;20041;-62
2021/01/17 01:51:53;;;;;;;36.60;14.60;;;;;;;-5.74;67.00;96548.78;5024561;28;20038;-63
2021/01/17 01:54:19;;;;;;;27.80;11.27;;;;;;;-5.08;67.24;96645.19;5006958;28;20116;-63
2021/01/17 01:56:45;;;;;;;25.50;10.32;;;;;;;-4.98;66.96;96672.09;5024440;28;20533;-65
2021/01/17 01:59:10;;;;;;;27.45;10.80;;;;;;;-4.86;65.55;96642.03;5024911;28;20457;-64
2021/01/17 02:01:35;;;;;;;27.45;11.82;;;;;;;-5.32;65.76;96579.50;5024180;28;20132;-63
2021/01/17 02:04:01;;;;;;;25.83;9.95;;;;;;;-4.85;65.58;96643.66;5006882;28;20530;-63
2021/01/17 02:06:27;;;;;;;28.10;9.77;;;;;;;-6.18;65.64;96445.59;5022990;28;20071;-63
2021/01/17 02:08:55;;;;;;;23.33;11.00;;;;;;;-4.86;65.95;96652.84;5024332;28;20033;-63
2021/01/17 02:11:39;;;;;;;24.40;10.13;;;;;;;-4.71;65.54;96645.41;5024098;28;20064;-64
2021/01/17 02:14:08;;;;;;;20.38;8.18;;;;;;;-4.67;65.74;96651.88;5024531;28;20083;-65
2021/01/17 02:16:35;;;;;;;26.77;9.20;;;;;;;-5.61;65.56;96532.00;5023983;28;20033;-65
2021/01/17 02:19:05;;;;;;;30.77;10.38;;;;;;;-4.73;66.14;96674.59;5006517;28;20030;-63
2021/01/17 02:21:31;;;;;;;29.20;10.00;;;;;;;-4.54;65.26;96652.31;5006176;28;20034;-63
2021/01/17 02:24:05;;;;;;;22.52;9.73;;;;;;;-4.93;66.04;96593.75;5024852;28;20096;-64
2021/01/17 02:26:31;;;;;;;34.15;12.70;;;;;;;-4.48;65.07;96637.66;5005958;28;20051;-64
2021/01/17 02:28:58;;;;;;;92.32;29.35;;;;;;;-4.46;65.01;96651.69;5006797;28;20033;-65
2021/01/17 02:31:25;;;;;;;53.92;19.98;;;;;;;-4.37;65.38;96649.97;5024222;28;20048;-63
2021/01/17 02:33:52;;;;;;;30.55;11.20;;;;;;;-4.30;65.10;96661.25;5024356;28;20511;-63
2021/01/17 02:36:37;;;;;;;21.73;8.90;;;;;;;-4.25;65.17;96677.44;5023961;28;20167;-64
2021/01/17 02:39:26;;;;;;;20.95;8.23;;;;;;;-4.18;65.94;96672.50;5022541;28;20091;-65
2021/01/17 02:42:00;;;;;;;19.27;8.35;;;;;;;-5.34;64.24;96451.38;4990395;28;20053;-68
2021/01/17 02:44:26;;;;;;;26.63;9.30;;;;;;;-4.20;64.76;96642.22;5004798;28;20049;-66
2021/01/17 02:46:52;;;;;;;24.45;9.77;;;;;;;-4.46;62.89;96570.63;5004104;28;20065;-66
2021/01/17 02:49:17;;;;;;;32.17;12.50;;;;;;;-3.95;64.14;96655.50;5004972;28;20038;-66
2021/01/17 02:51:43;;;;;;;19.85;8.45;;;;;;;-4.02;63.47;96658.53;5004122;28;20037;-65
2021/01/17 02:54:13;;;;;;;27.17;10.13;;;;;;;-4.74;63.26;96527.16;5004785;28;20144;-64
2021/01/17 02:56:49;;;;;;;29.98;10.52;;;;;;;-3.78;62.53;96647.72;5004345;28;20038;-64
2021/01/17 02:59:17;;;;;;;41.42;16.73;;;;;;;-3.92;62.51;96622.47;4986577;28;20121;-65
2021/01/17 03:01:47;;;;;;;47.05;18.77;;;;;;;-4.26;62.42;96570.38;5002562;28;20486;-66
2021/01/17 03:04:37;;;;;;;98.43;41.95;;;;;;;-3.67;61.81;96665.44;5004053;28;20100;-66
2021/01/17 03:07:09;;;;;;;39.30;15.55;;;;;;;-3.66;61.54;96657.03;5004118;28;20069;-65
2021/01/17 03:09:35;;;;;;;35.17;15.70;;;;;;;-3.66;60.90;96650.78;5004494;28;20042;-65
2021/01/17 03:12:05;;;;;;;30.40;13.65;;;;;;;-3.53;61.61;96655.50;5004176;28;20042;-66
2021/01/17 03:14:34;;;;;;;38.83;13.65;;;;;;;-3.47;61.83;96654.34;5004288;28;20400;-65
2021/01/17 03:17:01;;;;;;;34.10;13.73;;;;;;;-3.68;62.32;96612.38;5002443;28;20402;-65
2021/01/17 03:19:26;;;;;;;34.88;14.98;;;;;;;-3.88;62.09;96556.66;5004499;28;20033;-64
2021/01/17 03:21:52;;;;;;;33.95;14.55;;;;;;;-3.28;61.94;96653.28;4989215;28;20060;-68
2021/01/17 03:24:17;;;;;;;43.08;15.90;;;;;;;-3.67;60.45;96605.91;4990589;28;20061;-65
2021/01/17 03:26:42;;;;;;;40.33;17.25;;;;;;;-3.66;61.15;96650.78;5007631;28;20046;-66
2021/01/17 03:29:08;;;;;;;23.08;9.52;;;;;;;-4.18;62.80;96610.31;5008101;28;20526;-65
2021/01/17 03:31:33;;;;;;;28.40;11.00;;;;;;;-3.62;62.37;96658.03;4989701;28;20083;-65
2021/01/17 03:33:59;;;;;;;33.05;11.75;;;;;;;-3.54;62.01;96653.91;5016737;28;20424;-65
2021/01/17 03:36:24;;;;;;;28.77;9.77;;;;;;;-3.57;59.71;96654.47;5025614;28;20045;-65
2021/01/17 03:38:49;;;;;;;54.65;15.13;;;;;;;-3.54;61.10;96662.03;5027391;28;20030;-65
2021/01/17 03:41:15;;;;;;;63.95;16.77;;;;;;;-3.48;60.83;96652.72;5026952;28;20029;-65
2021/01/17 03:43:40;;;;;;;34.28;11.13;;;;;;;-4.46;61.19;96511.19;5025932;28;20052;-65
2021/01/17 03:46:06;;;;;;;29.98;11.27;;;;;;;-4.33;60.50;96537.50;5027089;28;20040;-65
2021/01/17 03:48:31;;;;;;;38.50;14.70;;;;;;;-3.38;61.92;96647.16;5027204;28;20037;-64
2021/01/17 03:50:57;;;;;;;51.67;19.73;;;;;;;-3.30;62.00;96649.22;5026964;28;20034;-65
2021/01/17 03:53:22;;;;;;;46.90;19.20;;;;;;;-4.15;62.87;96524.03;5027336;28;20128;-65
2021/01/17 03:55:48;;;;;;;35.35;14.95;;;;;;;-3.23;61.95;96655.91;5027146;28;20119;-64
2021/01/17 03:58:13;;;;;;;32.20;14.68;;;;;;;-3.56;62.13;96596.56;5026915;28;20416;-65
2021/01/17 04:00:38;;;;;;;38.15;17.92;;;;;;;-4.16;60.32;96516.22;5026565;28;20037;-64
2021/01/17 04:03:04;;;;;;;38.83;19.75;;;;;;;-3.27;61.50;96660.28;5027723;28;20029;-64
2021/01/17 04:05:29;;;;;;;34.85;16.40;;;;;;;-3.45;61.39;96630.50;5025170;28;20033;-65
2021/01/17 04:07:55;;;;;;;29.40;11.95;;;;;;;-3.35;61.25;96668.28;5026943;28;20539;-64
2021/01/17 04:10:21;;;;;;;21.70;8.65;;;;;;;-3.88;61.77;96607.25;5025088;28;20067;-64
2021/01/17 04:12:46;;;;;;;23.83;8.55;;;;;;;-3.62;61.39;96651.84;5026953;28;20033;-64
2021/01/17 04:15:12;;;;;;;18.67;8.18;;;;;;;-3.90;61.88;96620.25;5026598;28;20156;-64
2021/01/17 04:17:37;;;;;;;15.05;6.32;;;;;;;-3.57;61.15;96695.06;5027064;28;20041;-64
2021/01/17 04:20:04;;;;;;;16.95;6.68;;;;;;;-3.61;61.19;96675.91;5025384;28;20120;-62
2021/01/17 04:22:29;;;;;;;11.85;5.30;;;;;;;-3.71;60.82;96658.97;5025113;28;20040;-63
2021/01/17 04:24:55;;;;;;;15.30;7.05;;;;;;;-3.76;60.93;96678.00;5026684;28;20042;-63
2021/01/17 04:27:20;;;;;;;16.90;6.50;;;;;;;-3.75;60.75;96671.47;5024763;28;20429;-63
2021/01/17 04:29:46;;;;;;;27.65;9.75;;;;;;;-3.74;60.80;96681.19;5041688;28;20579;-64
2021/01/17 04:32:11;;;;;;;23.55;10.25;;;;;;;-3.83;62.08;96656.69;5040671;28;20038;-64
2021/01/17 04:34:37;;;;;;;29.92;12.70;;;;;;;-3.67;61.47;96676.25;5026368;28;20043;-64
2021/01/17 04:37:02;;;;;;;30.83;10.65;;;;;;;-3.65;61.10;96690.31;5026042;28;20053;-64
2021/01/17 04:39:28;;;;;;;35.30;12.43;;;;;;;-3.69;60.83;96678.44;5026321;28;20033;-63
2021/01/17 04:41:57;;;;;;;31.58;13.50;;;;;;;-3.66;61.72;96681.38;5008030;28;20120;-64
2021/01/17 04:44:33;;;;;;;42.58;17.00;;;;;;;-4.57;61.91;96504.28;5008393;28;20443;-64
2021/01/17 04:47:02;;;;;;;31.95;13.57;;;;;;;-3.38;61.52;96685.06;5025689;28;20048;-65
2021/01/17 04:49:28;;;;;;;31.13;14.23;;;;;;;-3.41;61.13;96680.22;5026133;28;20497;-62
2021/01/17 04:51:58;;;;;;;41.03;15.65;;;;;;;-3.39;62.59;96688.88;5025534;28;20063;-64
2021/01/17 04:54:23;;;;;;;25.00;11.38;;;;;;;-4.21;61.58;96567.63;5008310;28;20041;-65
2021/01/17 04:56:57;;;;;;;31.48;13.95;;;;;;;-3.44;61.90;96691.66;5025850;28;20083;-64
2021/01/17 04:59:34;;;;;;;25.85;11.68;;;;;;;-3.46;62.13;96688.41;5026320;28;20033;-64
2021/01/17 05:02:34;;;;;;;32.25;14.13;;;;;;;-3.61;62.31;96696.75;5025823;28;20543;-64
2021/01/17 05:05:08;;;;;;;30.50;13.15;;;;;;;-3.57;63.10;96708.59;5026344;28;20083;-66
2021/01/17 05:07:38;;;;;;;33.55;13.63;;;;;;;-3.53;62.65;96704.22;5007932;28;20148;-65
2021/01/17 05:10:11;;;;;;;35.10;17.15;;;;;;;-4.07;62.20;96631.53;5025666;28;20041;-65
2021/01/17 05:13:04;;;;;;;35.22;17.05;;;;;;;-3.42;61.00;96705.72;5026082;28;20041;-66
2021/01/17 05:15:31;;;;;;;31.83;12.52;;;;;;;-7.35;60.37;96088.72;5020842;28;20508;-65
2021/01/17 05:17:59;;;;;;;36.13;14.48;;;;;;;-3.41;60.21;96701.91;5025968;28;20037;-65
2021/01/17 05:20:24;;;;;;;45.28;17.95;;;;;;;-3.48;61.86;96704.16;5025623;28;20321;-65
2021/01/17 05:22:50;;;;;;;32.38;14.60;;;;;;;-4.05;61.55;96604.22;5025413;28;20045;-64
2021/01/17 05:25:17;;;;;;;33.78;13.93;;;;;;;-4.28;62.24;96599.63;5025245;28;20030;-65
2021/01/17 05:27:49;;;;;;;42.85;18.58;;;;;;;-3.46;61.35;96699.25;5025410;28;20536;-64
2021/01/17 05:30:14;;;;;;;29.60;11.93;;;;;;;-4.21;61.17;96595.47;5025018;28;20029;-63
2021/01/17 05:32:40;;;;;;;27.02;10.38;;;;;;;-3.65;61.38;96717.38;5025574;28;20094;-64
2021/01/17 05:35:06;;;;;;;25.70;10.10;;;;;;;-3.94;60.25;96659.78;5025334;28;20026;-65
2021/01/17 05:37:31;;;;;;;33.35;11.68;;;;;;;-4.59;61.34;96555.91;5023443;28;20108;-65
2021/01/17 05:39:59;;;;;;;38.67;13.85;;;;;;;-3.67;61.89;96716.84;5040201;28;20030;-64
2021/01/17 05:42:31;;;;;;;47.40;18.67;;;;;;;-3.65;62.67;96718.16;5022863;28;20586;-65
2021/01/17 05:45:09;;;;;;;37.78;15.07;;;;;;;-3.64;62.21;96718.97;5023261;28;20021;-65
2021/01/17 05:47:34;;;;;;;31.02;13.80;;;;;;;-4.12;62.65;96653.22;5040113;28;20049;-64
2021/01/17 05:50:12;;;;;;;38.00;16.48;;;;;;;-3.62;63.08;96722.97;5023457;28;20025;-65
2021/01/17 05:52:38;;;;;;;81.65;32.00;;;;;;;-3.65;62.16;96718.16;5025388;28;20038;-66
2021/01/17 05:55:06;;;;;;;118.72;50.17;;;;;;;-4.19;61.94;96662.78;5025400;28;20084;-64
2021/01/17 05:57:32;;;;;;;68.13;25.52;;;;;;;-4.14;61.47;96665.44;5023820;28;20072;-65
2021/01/17 05:59:59;;;;;;;57.88;23.90;;;;;;;-3.65;62.64;96728.19;5023278;28;20080;-66
2021/01/17 06:02:24;;;;;;;57.78;24.80;;;;;;;-3.64;63.11;96718.97;5023270;28;20098;-64
2021/01/17 06:05:02;;;;;;;62.92;23.45;;;;;;;-4.16;63.73;96652.19;5024846;28;20037;-64
2021/01/17 06:07:30;;;;;;;52.83;19.42;;;;;;;-3.94;63.89;96725.53;5024422;28;20041;-64
2021/01/17 06:10:06;;;;;;;38.83;16.35;;;;;;;-4.38;64.92;96761.88;5023245;28;20037;-63
2021/01/17 06:12:37;;;;;;;44.42;18.98;;;;;;;-4.21;64.79;96697.41;5024191;28;20033;-63
2021/01/17 06:15:11;;;;;;;53.95;23.65;;;;;;;-4.12;64.74;96722.72;5024792;28;20038;-63
2021/01/17 06:17:57;;;;;;;77.35;28.77;;;;;;;-4.11;65.56;96732.44;5025199;28;20025;-64
2021/01/17 06:20:27;;;;;;;92.28;39.92;;;;;;;-4.14;66.83;96730.31;5022700;28;20049;-62
2021/01/17 06:22:58;;;;;;;66.85;30.00;;;;;;;-4.57;66.71;96679.91;5024723;28;20730;-62
2021/01/17 06:25:31;;;;;;;66.60;28.10;;;;;;;-4.42;67.12;96704.88;5024419;28;20029;-64
2021/01/17 06:28:06;;;;;;;65.78;26.75;;;;;;;-5.08;67.41;96596.59;5024675;28;20496;-63
2021/01/17 06:30:32;;;;;;;111.10;52.30;;;;;;;-4.62;67.11;96670.72;5022903;28;20095;-63
2021/01/17 06:32:57;;;;;;;58.65;24.00;;;;;;;-4.40;66.14;96723.50;5024630;28;20224;-63
2021/01/17 06:35:33;;;;;;;70.97;30.92;;;;;;;-4.26;66.13;96733.38;5023955;28;20505;-65
2021/01/17 06:38:19;;;;;;;91.90;41.83;;;;;;;-4.13;66.27;96753.56;5024263;28;20045;-65
2021/01/17 06:40:47;;;;;;;133.38;57.17;;;;;;;-4.38;66.17;96691.63;5024242;28;20549;-66
2021/01/17 06:43:14;;;;;;;125.30;50.63;;;;;;;-3.86;65.35;96748.44;5006474;28;20045;-65
2021/01/17 06:45:44;;;;;;;112.22;46.20;;;;;;;-3.64;62.76;96746.03;5006046;28;20056;-65
2021/01/17 06:48:23;;;;;;;78.50;35.95;;;;;;;-3.96;64.16;96732.28;5006070;28;20578;-67
2021/01/17 06:50:49;;;;;;;75.88;30.80;;;;;;;-4.03;64.08;96715.63;5022187;28;20124;-66
2021/01/17 06:53:25;;;;;;;51.28;21.83;;;;;;;-3.72;63.92;96761.00;5024335;28;20097;-64
2021/01/17 06:56:14;;;;;;;54.92;22.70;;;;;;;-3.42;62.83;96755.25;5027561;28;20025;-66
2021/01/17 06:58:40;;;;;;;53.70;23.17;;;;;;;-3.25;63.21;96760.16;5010152;28;20037;-65
2021/01/17 07:01:07;;;;;;;44.33;19.15;;;;;;;-3.01;61.05;96766.38;5008990;28;20099;-66
2021/01/17 07:03:49;;;;;;;38.15;15.50;;;;;;;-3.42;60.52;96673.22;5028342;28;20061;-66
2021/01/17 07:06:39;;;;;;;37.77;15.13;;;;;;;-2.62;60.37;96779.63;5027806;28;20042;-66
2021/01/17 07:09:25;;;;;;;21.67;9.35;;;;;;;-2.88;58.12;96754.81;5010434;28;20095;-65
2021/01/17 07:12:12;;;;;;;23.15;9.57;;;;;;;-2.30;57.07;96777.00;5027662;28;20113;-65
2021/01/17 07:14:40;;;;;;;15.48;6.18;;;;;;;-2.31;55.74;96781.59;5028242;28;20034;-64
2021/01/17 07:17:08;;;;;;;16.60;6.85;;;;;;;-2.25;54.97;96783.16;5009903;28;20044;-65
2021/01/17 07:19:34;;;;;;;14.70;5.57;;;;;;;-2.08;54.16;96801.59;5010366;28;20045;-64
2021/01/17 07:22:04;;;;;;;17.05;7.47;;;;;;;-2.03;53.33;96788.75;5027855;28;20234;-65
2021/01/17 07:24:30;;;;;;;19.25;7.43;;;;;;;-2.54;54.64;96743.75;5027787;28;20029;-66
2021/01/17 07:27:38;;;;;;;13.32;5.75;;;;;;;-2.15;55.11;96791.13;5009334;28;20045;-63
2021/01/17 07:30:04;;;;;;;16.45;6.45;;;;;;;-2.16;55.27;96789.50;5026244;28;20034;-64
2021/01/17 07:32:36;;;;;;;22.80;12.18;;;;;;;-2.05;56.06;96785.53;5025770;28;20182;-65
2021/01/17 07:35:08;;;;;;;20.13;7.25;;;;;;;-1.85;54.61;96790.63;5022758;28;20543;-64
2021/01/17 07:37:34;;;;;;;33.78;12.80;;;;;;;-1.93;54.43;96783.16;5043050;28;20030;-65
2021/01/17 07:40:07;;;;;;;29.85;12.80;;;;;;;-2.30;54.77;96723.56;5027484;28;20091;-66
2021/01/17 07:42:35;;;;;;;28.08;10.88;;;;;;;-2.12;54.36;96730.84;5026135;28;20069;-67
2021/01/17 07:45:13;;;;;;;21.75;10.30;;;;;;;-1.63;54.27;96782.63;5025925;28;20033;-66
2021/01/17 07:47:42;;;;;;;25.98;9.73;;;;;;;-1.56;52.74;96783.03;5042418;28;20052;-67
2021/01/17 07:50:09;;;;;;;33.63;14.18;;;;;;;-1.40;53.09;96785.47;5027351;28;20140;-67
2021/01/17 07:52:52;;;;;;;27.50;11.82;;;;;;;-1.62;53.34;96762.53;5025578;28;20044;-67
2021/01/17 07:55:20;;;;;;;20.10;10.40;;;;;;;-1.59;52.18;96772.78;5027027;28;20523;-67
2021/01/17 07:57:51;;;;;;;26.27;10.68;;;;;;;-1.70;52.10;96760.50;5018076;28;20038;-65
2021/01/17 08:00:16;;;;;;;21.65;9.60;;;;;;;-1.56;52.28;96793.91;5024792;28;20145;-66
2021/01/17 08:02:49;;;;;;;24.80;10.73;;;;;;;-1.68;52.07;96758.31;5025876;28;20243;-65
2021/01/17 08:05:14;;;;;;;33.00;14.30;;;;;;;-1.74;53.82;96737.75;5025351;28;20573;-67
2021/01/17 08:07:40;;;;;;;24.60;11.80;;;;;;;-1.38;51.29;96778.63;5026228;28;20034;-66
2021/01/17 08:10:06;;;;;;;25.48;12.07;;;;;;;-2.14;52.46;96657.13;5025473;28;20037;-66
2021/01/17 08:12:37;;;;;;;25.67;11.50;;;;;;;-1.32;50.90;96787.47;5026835;28;20041;-67
2021/01/17 08:15:13;;;;;;;27.17;12.30;;;;;;;-1.47;51.42;96763.34;5026655;28;20124;-66
2021/01/17 08:17:39;;;;;;;22.83;11.77;;;;;;;-2.01;51.46;96648.16;5026932;28;20033;-65
2021/01/17 08:20:06;;;;;;;29.65;14.07;;;;;;;-0.98;50.07;96766.16;5041618;28;20455;-66
2021/01/17 08:22:32;;;;;;;25.45;12.60;;;;;;;-0.73;50.37;96784.66;5026725;28;20033;-66
2021/01/17 08:24:59;;;;;;;21.38;10.60;;;;;;;-0.60;49.60;96784.63;5024722;28;20039;-67
2021/01/17 08:27:31;;;;;;;31.50;13.73;;;;;;;-0.22;49.42;96780.47;5024356;28;20496;-65
2021/01/17 08:30:06;;;;;;;20.58;9.07;;;;;;;-0.07;47.93;96771.97;5024840;28;20484;-66
2021/01/17 08:32:37;;;;;;;28.52;12.88;;;;;;;0.18;48.36;96778.69;5026345;28;20039;-66
2021/01/17 08:35:18;;;;;;;19.88;9.65;;;;;;;0.38;45.88;96783.63;5011669;28;20034;-66
2021/01/17 08:37:55;;;;;;;20.80;9.48;;;;;;;0.07;46.35;96747.38;5025212;28;20484;-66
2021/01/17 08:40:30;;;;;;;22.67;10.13;;;;;;;0.41;45.57;96779.47;5026267;28;20045;-70
2021/01/17 08:42:56;;;;;;;21.58;9.63;;;;;;;0.27;45.89;96787.72;5026521;28;20041;-66
2021/01/17 08:45:21;;;;;;;29.05;13.02;;;;;;;0.36;46.38;96777.69;5025922;28;20075;-66
2021/01/17 08:47:48;;;;;;;22.02;11.18;;;;;;;-0.11;46.90;96644.94;5026054;28;20076;-66
2021/01/17 08:50:30;;;;;;;25.45;12.55;;;;;;;0.68;45.34;96774.63;5007999;28;20061;-66
2021/01/17 08:53:15;;;;;;;26.15;11.35;;;;;;;0.59;45.85;96773.81;5026228;28;20451;-66
2021/01/17 08:55:48;;;;;;;28.95;15.50;;;;;;;0.82;47.98;96772.63;5007923;28;20432;-67
2021/01/17 08:58:15;;;;;;;;;;;;;;;0.65;46.12;96778.00;5026328;28;20033;-67
2021/01/17 09:00:49;;;;;;;16.75;7.85;;;;;;;0.52;46.49;96773.44;5025527;28;20358;-66
2021/01/17 09:03:31;;;;;;;19.38;9.52;;;;;;;0.73;45.00;96773.69;5024176;28;20033;-66
2021/01/17 09:06:00;;;;;;;31.65;12.02;;;;;;;0.83;44.77;96785.16;5025730;28;20037;-66
2021/01/17 09:08:27;;;;;;;25.63;10.15;;;;;;;0.07;45.88;96668.44;5007621;28;20527;-65
2021/01/17 09:10:53;;;;;;;25.63;12.60;;;;;;;0.72;45.91;96770.19;5025274;28;20095;-68
2021/01/17 09:13:25;;;;;;;17.40;8.57;;;;;;;0.83;45.86;96778.88;5025523;28;20037;-66
2021/01/17 09:16:03;;;;;;;17.05;8.05;;;;;;;0.75;44.28;96772.28;5007046;28;20037;-65
2021/01/17 09:18:39;;;;;;;25.83;12.20;;;;;;;0.50;45.10;96747.63;5024246;28;20045;-66
2021/01/17 09:21:06;;;;;;;25.67;13.52;;;;;;;0.33;46.61;96731.22;5025243;28;20300;-66
2021/01/17 09:23:41;;;;;;;30.55;15.63;;;;;;;-0.19;46.77;96711.03;5007409;28;20095;-68
2021/01/17 09:26:07;;;;;;;17.23;7.25;;;;;;;0.33;48.49;96763.88;5006860;28;20045;-67
2021/01/17 09:28:34;;;;;;;38.92;19.98;;;;;;;-1.09;47.35;96547.38;5025216;28;20164;-66
2021/01/17 09:31:01;;;;;;;20.80;11.70;;;;;;;-0.05;47.55;96747.16;5007226;28;20033;-66
2021/01/17 09:33:28;;;;;;;27.52;11.45;;;;;;;0.29;46.59;96760.97;5007083;28;20072;-66
2021/01/17 09:35:54;;;;;;;41.40;16.38;;;;;;;0.17;46.18;96744.41;5040371;28;20072;-67
2021/01/17 09:38:24;;;;;;;17.05;7.47;;;;;;;0.19;46.76;96763.16;5025300;28;20087;-64
2021/01/17 09:40:56;;;;;;;21.35;10.15;;;;;;;0.22;44.30;96762.53;5023221;28;20103;-64
2021/01/17 09:43:22;;;;;;;15.35;7.30;;;;;;;0.29;45.19;96732.94;5024944;28;20184;-65
2021/01/17 09:45:57;;;;;;;20.05;14.43;;;;;;;-0.05;45.41;96695.44;5024917;28;20040;-64
2021/01/17 09:48:25;;;;;;;21.52;16.55;;;;;;;0.56;46.17;96754.53;5025410;28;20098;-64
2021/01/17 09:50:51;;;;;;;41.78;32.10;;;;;;;0.73;44.77;96741.81;5024659;28;20037;-64
2021/01/17 09:53:18;;;;;;;14.25;8.07;;;;;;;0.75;42.67;96750.47;5024734;28;20040;-64
2021/01/17 09:55:45;;;;;;;13.38;5.90;;;;;;;0.88;42.02;96746.84;5024643;28;20128;-63
2021/01/17 09:58:12;;;;;;;32.67;16.42;;;;;;;1.03;44.55;96751.03;5024485;28;20041;-63
2021/01/17 10:00:39;;;;;;;25.17;14.30;;;;;;;0.98;44.21;96752.00;5022118;28;20041;-64
2021/01/17 10:03:08;;;;;;;19.30;11.13;;;;;;;1.12;44.69;96744.50;5024455;28;20029;-65
2021/01/17 10:05:37;;;;;;;11.43;5.85;;;;;;;1.38;41.95;96745.34;5022201;28;20041;-64
2021/01/17 10:08:04;;;;;;;16.80;7.32;;;;;;;1.46;40.96;96743.75;5023112;28;20124;-63
2021/01/17 10:10:30;;;;;;;20.27;9.68;;;;;;;0.65;41.34;96598.16;5024331;28;20037;-65
2021/01/17 10:12:55;;;;;;;20.40;9.20;;;;;;;1.66;41.68;96736.88;5024920;28;20506;-65
2021/01/17 10:15:21;;;;;;;19.73;9.85;;;;;;;0.94;43.60;96622.88;5024220;28;20033;-65
2021/01/17 10:17:48;;;;;;;17.40;7.72;;;;;;;1.83;40.85;96736.88;5023050;28;20550;-64
2021/01/17 10:20:37;;;;;;;19.58;10.13;;;;;;;1.03;40.80;96607.34;5024039;28;20059;-64
2021/01/17 10:23:12;;;;;;;25.30;13.02;;;;;;;1.25;42.91;96678.09;5023031;28;20034;-65
2021/01/17 10:25:38;;;;;;;15.82;7.15;;;;;;;1.28;42.63;96696.53;5024660;28;20091;-64
2021/01/17 10:28:10;;;;;;;15.52;6.93;;;;;;;1.65;41.46;96724.34;5024797;28;20049;-64
2021/01/17 10:30:40;;;;;;;12.85;6.57;;;;;;;1.78;41.65;96728.84;5038390;28;20083;-64
2021/01/17 10:33:11;;;;;;;12.70;5.78;;;;;;;1.39;39.80;96645.22;5024473;28;20029;-65
2021/01/17 10:35:45;;;;;;;10.50;5.82;;;;;;;2.06;39.03;96716.44;5004376;28;20034;-64
2021/01/17 10:38:12;;;;;;;27.92;13.85;;;;;;;1.73;40.17;96693.50;4986878;28;20518;-65
2021/01/17 10:40:40;;;;;;;23.30;9.32;;;;;;;1.39;38.26;96577.00;4986346;28;20044;-65
2021/01/17 10:43:10;;;;;;;23.58;12.50;;;;;;;2.26;39.10;96719.28;4986618;28;20588;-65
2021/01/17 10:45:38;;;;;;;14.13;6.03;;;;;;;2.49;39.10;96689.81;5003686;28;20068;-64
2021/01/17 10:48:15;;;;;;;13.02;6.93;;;;;;;2.40;37.95;96714.41;4986332;28;20505;-65
2021/01/17 10:50:54;;;;;;;22.10;11.05;;;;;;;2.29;37.40;96631.19;5004062;28;20684;-65
2021/01/17 10:53:38;;;;;;;20.08;11.57;;;;;;;2.38;38.08;96713.16;5004449;28;20034;-65
2021/01/17 10:56:04;;;;;;;21.63;10.95;;;;;;;1.17;38.67;96558.88;4986092;28;20034;-65
2021/01/17 10:58:33;;;;;;;20.23;11.15;;;;;;;2.16;39.30;96714.19;5002634;28;20420;-65
2021/01/17 11:01:00;;;;;;;17.80;8.20;;;;;;;1.86;38.71;96670.69;5003692;28;20054;-64
2021/01/17 11:03:33;;;;;;;13.90;6.18;;;;;;;1.25;39.14;96708.09;5004753;28;20038;-63
2021/01/17 11:06:11;;;;;;;17.10;7.13;;;;;;;1.39;39.68;96700.56;4986421;28;20931;-64
2021/01/17 11:08:50;;;;;;;11.00;4.78;;;;;;;0.92;40.18;96696.00;4987016;28;20058;-64
2021/01/17 11:11:16;;;;;;;14.88;6.90;;;;;;;-0.73;42.11;96610.66;5002842;28;20575;-65
2021/01/17 11:13:42;;;;;;;13.27;5.68;;;;;;;-1.53;44.06;96563.63;4986435;28;20022;-63
2021/01/17 11:16:08;;;;;;;13.43;6.20;;;;;;;-0.85;43.31;96643.00;4985883;28;20532;-64
2021/01/17 11:18:36;;;;;;;14.05;6.13;;;;;;;0.01;41.45;96707.81;4986361;28;20037;-63
2021/01/17 11:21:03;;;;;;;14.55;6.63;;;;;;;-0.69;40.70;96579.00;4985903;28;20030;-65
2021/01/17 11:23:30;;;;;;;16.23;6.32;;;;;;;0.18;42.30;96710.63;5004360;28;20052;-65
2021/01/17 11:26:21;;;;;;;11.40;4.90;;;;;;;-1.03;43.90;96635.81;4986038;28;20044;-65
2021/01/17 11:28:51;;;;;;;15.43;6.32;;;;;;;-1.73;45.24;96614.53;4986259;28;20046;-65
2021/01/17 11:31:18;;;;;;;18.13;8.45;;;;;;;-1.34;47.60;96659.34;5003650;28;20042;-64
2021/01/17 11:33:46;;;;;;;20.98;7.38;;;;;;;-0.80;46.97;96716.28;5007152;28;20108;-64